Gilman, IL (60938)

6:11 AM CST on January 18, 2017 (GMT -0600)
FARM 4 MILES N.E. OF TOWN | | Change Station

Elev 668 ft 40.81 °N, 88.16 °W | Updated 13 minutes ago

Overcast
Overcast
33.0 °F
Feels Like 24 °F
N
12.0
Wind Variable Wind from West

Today
High -- | Low -- °F
--% Chance of Precip.
Yesterday
High -- | Low -- °F
Precip. -- in
Pressure 30.14 in
Visibility 7.0 miles
Clouds Overcast 400 ft
Windchill 24 °F
Dew Point 32 °F
Humidity 97%
Rainfall 0.00 in
Snow Depth Not available.
7:12 AM 4:52 PM
Waning Gibbous, 64% visible
METAR KIKK 181155Z AUTO 26010KT 7SM OVC004 01/01 A3014 RMK AO2 T00080005 10015 20007
Pressure 30.14 in
Visibility 7.0 miles
Clouds Overcast 400 ft
Windchill 24 °F
Dew Point 32 °F
Humidity 97%
Rainfall 0.00 in
Snow Depth Not available.
7:12 AM 4:52 PM
Waning Gibbous, 64% visible
METAR KIKK 181155Z AUTO 26010KT 7SM OVC004 01/01 A3014 RMK AO2 T00080005 10015 20007

Get Your Daily Forecast Email!

Thanks for signing up!

Be on the lookout for a verification email in your inbox.

You'll start receiving the daily forecast at 8 AM.

×

10-Day Weather Forecast

Almanac

Astronomy

Jan. 18, 2017 Rise Set
Actual Time
Civil Twilight
Nautical Twilight
Astronomical Twilight
Moon
Length of Visible Light
Length of Day
Tomorrow will be .
, % of the Moon is Illuminated

Today's Extremes

State Highs State Lows

Community

WunderPhotos

Upload Photos

1,962,540 photos uploaded!

WunderBlog® & News

Nearby

Air Quality

  Air Quality AQ Index Pollutant
Not available.

Snow Depth

Station Depth Elevation

Earthquake Activity

City Distance Mag. Time & Date
Minimum magnitude displayed is 2.5.

Coastal Water Temperatures

Place Temperature

Stations

Nearby Weather Stations

Station Location Temp. Windchill Dew Point Humidity Wind Precip. Elev Updated Type
                   

Watches & Warnings

There are currently no watches in effect.